Atlantic - Newfoundland: Past 24 Hour Conditions

 

St. John's Int'l Airport

11:30 PM NST 22 November 2014
This table is a summary of hourly weather conditions for the past 24 hours.
Date / Time
(NST)
Wind(knots) Conditions Visibility(km) Pressure(kPa) Air tempC) Relative humidity(%) Dew pointC) Wind Chill
22 November 2014
23:30 W 16 gust 23 Mostly Cloudy 24 100.8 -2 66 -8 -10
22:30 W 12 Partly Cloudy 24 100.8 -3 66 -9 -10
21:30 W 15 gust 24 Mainly Clear 24 100.8 -3 62 -10 -11
20:30 W 24 gust 33 Mainly Clear 24 100.8 -3 57 -11 -12
19:30 W 22 gust 33 Partly Cloudy 24 100.8 -3 51 -12 -12
18:30 WNW 25 gust 36 Partly Cloudy 24 100.7 -3 54 -11 -12
17:30 WNW 28 gust 34 Mainly Clear 24 100.6 -3 52 -12 -13
16:30 WNW 30 gust 40 Partly Cloudy 24 100.5 -3 53 -11 -13
15:30 WNW 26 gust 38 Partly Cloudy 24 100.4 -3 51 -11 -12
14:30 W 28 gust 40 Partly Cloudy 24 100.4 -3 51 -11 -12
13:30 WNW 26 gust 40 Partly Cloudy 24 100.3 -2 47 -12 -11
12:30 W 29 gust 36 Partly Cloudy 24 100.3 -3 50 -12 -13
11:30 WNW 30 gust 40 Partly Cloudy 24 100.3 -4 50 -13 -14
10:30 WNW 29 gust 36 Partly Cloudy 24 100.4 -4 52 -12 -13
9:30 WNW 23 gust 34 Partly Cloudy 24 100.3 -4 55 -12 -13
8:30 W 26 gust 35 Mostly Cloudy 24 100.3 -4 58 -11 -14
7:30 WNW 18 gust 28 Partly Cloudy 24 100.2 -4 64 -10 -13
6:30 WNW 22 gust 34 Partly Cloudy 24 100.1 -4 59 -11 -13
5:30 WNW 22 Partly Cloudy 24 100.0 -3 66 -9 -12
4:30 WNW 22 gust 32 Partly Cloudy 24 100.0 -3 64 -9 -12
3:30 WNW 19 gust 24 Partly Cloudy 24 99.9 -3 71 -7 -11
2:30 WNW 18 gust 27 Mostly Cloudy 24 99.8 -2 73 -6 -9
1:30 W 15 gust 21 Mainly Clear 24 99.8 -2 70 -7 -9
0:30 WNW 16 gust 28 Partly Cloudy 24 99.7 -2 66 -7 -9
21 November 2014
23:30 W 16 gust 26 Mainly Clear 24 99.7 -1 70 -6 -8
 
Map of Atlantic - Newfoundland marine weather areas Southwestern Grand Banks - 44138 Banquereau - 44139 Tail of the Bank - 44140 Nickerson Bank - 44251 Northeast Burgeo Bank - 44255 Blanc-Sablon Airport Cap Whittle Chevery Natashquan Airport Heath Point Miscou Island Grand Étang Ingonish Beach North Mountain St.Paul Island J.A. Douglas McCurdy Sydney Airport Charlottetown Airport East Point North Cape Argentia Bonavista Burgeo Cape Race Corner Brook Daniel's Harbour Englee Ferolle Point La Scie Port aux Basques Rocky Harbour Sagona Island St. Anthony Airport St. John's Int'l Airport St. Lawrence Stephenville Airport Twillingate Winterland Wreckhouse Cartwright Airport Mary's Harbour Grates Cove Pool's Island Marticot Island Long Pond Îles de la Madeleine Airport
Legend: buoyBuoy land stationLand Station